Time;durP1;ratioP1;P1;durP2;ratioP2;P2;SDS_P1;SDS_P2;PMS_P1;PMS_P2;Temp;Humidity;BMP_temperature;BMP_pressure;BME280_temperature;BME280_humidity;BME280_pressure;Samples;Min_cycle;Max_cycle;Signal;HPM_P1;HPM_P2
2021/12/25 00:00:10;;;;;;;0.70;0.32;;;;;;;;;;5009852;28;20041;-60
2021/12/25 00:02:36;;;;;;;1.70;0.80;;;;;;;;;;5008768;28;20040;-60
2021/12/25 00:05:03;;;;;;;2.90;0.70;;;;;;;;;;5010001;28;20049;-60
2021/12/25 00:07:29;;;;;;;0.85;0.45;;;;;;;;;;5009680;28;20845;-60
2021/12/25 00:09:55;;;;;;;0.98;0.47;;;;;;;;;;5010469;28;20045;-59
2021/12/25 00:12:20;;;;;;;1.48;0.65;;;;;;;;;;5009803;28;20045;-59
2021/12/25 00:14:46;;;;;;;1.17;0.60;;;;;;;;;;5010684;28;20088;-59
2021/12/25 00:17:12;;;;;;;4.70;1.13;;;;;;;;;;5010408;28;20038;-60
2021/12/25 00:19:38;;;;;;;0.93;0.45;;;;;;;;;;5010883;28;20081;-60
2021/12/25 00:22:03;;;;;;;2.15;0.90;;;;;;;;;;5011574;28;20144;-61
2021/12/25 00:24:29;;;;;;;4.57;1.65;;;;;;;;;;5009094;28;20072;-59
2021/12/25 00:27:11;;;;;;;1.17;0.68;;;;;;;;;;5009245;28;20045;-60
2021/12/25 00:29:54;;;;;;;4.13;1.55;;;;;;;;;;5009359;28;24111;-59
2021/12/25 00:34:49;;;;;;;0.43;0.32;;;;;;;;;;5009316;28;20956;-60
2021/12/25 00:37:15;;;;;;;0.88;0.60;;;;;;;;;;4991702;28;20686;-60
2021/12/25 00:39:43;;;;;;;1.30;0.40;;;;;;;;;;4988985;28;20046;-61
2021/12/25 00:42:09;;;;;;;1.70;0.85;;;;;;;;;;5010511;28;20111;-61
2021/12/25 00:44:35;;;;;;;1.85;0.75;;;;;;;;;;5008680;28;20148;-61
2021/12/25 00:47:01;;;;;;;4.00;1.25;;;;;;;;;;5009508;28;20576;-62
2021/12/25 00:49:27;;;;;;;0.75;0.57;;;;;;;;;;5007183;28;20050;-62
2021/12/25 00:51:53;;;;;;;1.02;0.52;;;;;;;;;;5009007;28;20053;-61
2021/12/25 00:54:19;;;;;;;1.27;0.60;;;;;;;;;;5007892;28;20045;-61
2021/12/25 00:56:45;;;;;;;1.75;0.85;;;;;;;;;;5009449;28;20071;-60
2021/12/25 00:59:10;;;;;;;3.55;1.40;;;;;;;;;;4991227;28;20041;-61
2021/12/25 01:01:36;;;;;;;1.30;0.70;;;;;;;;;;5008010;28;20140;-61
2021/12/25 01:04:03;;;;;;;3.85;1.63;;;;;;;;;;5006985;28;20080;-60
2021/12/25 01:06:29;;;;;;;1.90;0.93;;;;;;;;;;5006838;28;20048;-59
2021/12/25 01:08:54;;;;;;;3.70;1.17;;;;;;;;;;5007721;28;20472;-61
2021/12/25 01:11:22;;;;;;;3.70;1.35;;;;;;;;;;5009083;28;20091;-62
2021/12/25 01:13:56;;;;;;;3.63;1.10;;;;;;;;;;5009346;28;20057;-59
2021/12/25 01:17:03;;;;;;;1.70;0.90;;;;;;;;;;5008417;28;20041;-60
2021/12/25 01:24:59;;;;;;;1.85;0.70;;;;;;;;;;5007367;28;20119;-60
2021/12/25 01:30:49;;;;;;;1.25;0.73;;;;;;;;;;5009493;28;20378;-60
2021/12/25 01:41:04;;;;;;;1.83;0.73;;;;;;;;;;5008276;28;20045;-61
2021/12/25 01:48:58;;;;;;;1.23;0.63;;;;;;;;;;5007851;28;20155;-62
2021/12/25 01:51:24;;;;;;;0.77;0.47;;;;;;;;;;5007523;28;20053;-59
2021/12/25 01:53:50;;;;;;;1.88;0.68;;;;;;;;;;5010639;28;20548;-60
2021/12/25 01:56:16;;;;;;;2.85;1.27;;;;;;;;;;5009221;28;20041;-59
2021/12/25 01:58:42;;;;;;;3.05;1.05;;;;;;;;;;5010081;28;20041;-62
2021/12/25 02:01:09;;;;;;;1.50;0.68;;;;;;;;;;4991342;28;20052;-61
2021/12/25 02:03:36;;;;;;;4.68;1.58;;;;;;;;;;5009290;28;20092;-60
2021/12/25 02:06:03;;;;;;;0.88;0.47;;;;;;;;;;4997773;28;20499;-60
2021/12/25 02:08:29;;;;;;;0.98;0.60;;;;;;;;;;5007115;28;20120;-59
2021/12/25 02:10:55;;;;;;;0.40;0.40;;;;;;;;;;5009323;28;20287;-60
2021/12/25 02:13:21;;;;;;;3.38;1.30;;;;;;;;;;5008829;28;20072;-61
2021/12/25 02:15:50;;;;;;;0.88;0.50;;;;;;;;;;5008037;28;20092;-61
2021/12/25 02:21:22;;;;;;;0.52;0.35;;;;;;;;;;5012146;28;20048;-60
2021/12/25 02:23:48;;;;;;;3.83;1.58;;;;;;;;;;5012362;28;20137;-59
2021/12/25 02:26:14;;;;;;;2.72;1.20;;;;;;;;;;5012883;28;20068;-61
2021/12/25 02:28:39;;;;;;;0.40;0.40;;;;;;;;;;5012785;28;20125;-60
2021/12/25 02:31:07;;;;;;;0.65;0.65;;;;;;;;;;5013683;28;20049;-60
2021/12/25 02:33:33;;;;;;;0.55;0.40;;;;;;;;;;5012172;28;20058;-59
2021/12/25 02:35:59;;;;;;;3.30;1.05;;;;;;;;;;5011695;28;20541;-59
2021/12/25 02:38:26;;;;;;;1.48;0.93;;;;;;;;;;5014264;28;20041;-61
2021/12/25 02:40:52;;;;;;;2.78;1.00;;;;;;;;;;5012647;28;20033;-61
2021/12/25 02:43:18;;;;;;;1.70;0.75;;;;;;;;;;5013323;28;20838;-61
2021/12/25 02:45:44;;;;;;;2.17;0.85;;;;;;;;;;5011615;28;20068;-61
2021/12/25 02:48:10;;;;;;;2.83;1.23;;;;;;;;;;5013411;28;20514;-61
2021/12/25 02:50:37;;;;;;;3.88;1.30;;;;;;;;;;5012267;28;20739;-61
2021/12/25 02:53:04;;;;;;;4.50;1.58;;;;;;;;;;5013377;28;20037;-61
2021/12/25 02:55:31;;;;;;;2.42;1.08;;;;;;;;;;5011284;28;20038;-61
2021/12/25 02:57:57;;;;;;;1.23;0.55;;;;;;;;;;5013755;28;20087;-62
2021/12/25 03:00:24;;;;;;;3.65;1.45;;;;;;;;;;4998629;28;20061;-61
2021/12/25 03:02:50;;;;;;;3.33;1.55;;;;;;;;;;5011709;28;20042;-58
2021/12/25 03:05:16;;;;;;;2.95;1.00;;;;;;;;;;5012716;28;20839;-59
2021/12/25 03:07:43;;;;;;;2.45;1.02;;;;;;;;;;5010015;28;20037;-57
2021/12/25 03:10:09;;;;;;;2.25;1.45;;;;;;;;;;5011804;28;20098;-58
2021/12/25 03:12:46;;;;;;;1.73;1.05;;;;;;;;;;5011835;28;20510;-61
2021/12/25 03:15:16;;;;;;;2.30;0.93;;;;;;;;;;5010980;28;20046;-59
2021/12/25 03:17:42;;;;;;;0.60;0.35;;;;;;;;;;5010259;28;20041;-60
2021/12/25 03:20:10;;;;;;;1.65;0.85;;;;;;;;;;5011479;28;21673;-58
2021/12/25 03:22:37;;;;;;;2.58;1.05;;;;;;;;;;4991154;28;20050;-60
2021/12/25 03:25:08;;;;;;;2.22;0.90;;;;;;;;;;5010949;28;20042;-61
2021/12/25 03:27:36;;;;;;;3.60;1.48;;;;;;;;;;5009853;28;20105;-62
2021/12/25 03:30:03;;;;;;;2.17;1.02;;;;;;;;;;4990548;28;20049;-62
2021/12/25 03:32:29;;;;;;;2.30;1.05;;;;;;;;;;5010537;28;21944;-61
2021/12/25 03:34:55;;;;;;;3.45;1.42;;;;;;;;;;5010654;28;20050;-60
2021/12/25 03:37:21;;;;;;;0.30;0.30;;;;;;;;;;5011994;28;20049;-61
2021/12/25 03:39:47;;;;;;;0.93;0.63;;;;;;;;;;4995729;28;20116;-61
2021/12/25 03:42:13;;;;;;;2.63;0.70;;;;;;;;;;4994212;28;20041;-62
2021/12/25 03:44:38;;;;;;;4.15;1.23;;;;;;;;;;5011106;28;20042;-62
2021/12/25 03:47:14;;;;;;;6.13;1.48;;;;;;;;;;5011818;28;20340;-61
2021/12/25 03:57:57;;;;;;;1.08;0.88;;;;;;;;;;5010363;28;20088;-62
2021/12/25 04:00:29;;;;;;;0.60;0.40;;;;;;;;;;5010581;28;20042;-62
2021/12/25 04:03:00;;;;;;;1.90;1.05;;;;;;;;;;5011143;28;20053;-61
2021/12/25 04:05:32;;;;;;;14.55;1.20;;;;;;;;;;5009266;28;20119;-62
2021/12/25 04:08:19;;;;;;;0.43;0.25;;;;;;;;;;5011189;28;20037;-60
2021/12/25 04:10:45;;;;;;;1.60;0.85;;;;;;;;;;5009137;28;20034;-60
2021/12/25 04:13:13;;;;;;;0.70;0.43;;;;;;;;;;5010257;28;20462;-62
2021/12/25 04:15:39;;;;;;;1.17;0.73;;;;;;;;;;5010106;28;20255;-61
2021/12/25 04:18:06;;;;;;;1.83;0.63;;;;;;;;;;5010096;28;20045;-62
2021/12/25 04:20:32;;;;;;;2.13;0.77;;;;;;;;;;5009033;28;20089;-61
2021/12/25 04:23:11;;;;;;;1.25;0.93;;;;;;;;;;5010808;28;20042;-60
2021/12/25 04:25:37;;;;;;;0.28;0.28;;;;;;;;;;5008988;28;20177;-61
2021/12/25 04:28:18;;;;;;;0.85;0.70;;;;;;;;;;5010606;28;20042;-60
2021/12/25 04:31:11;;;;;;;4.10;0.73;;;;;;;;;;5009469;28;20158;-61
2021/12/25 04:50:31;;;;;;;3.28;1.23;;;;;;;;;;5009371;28;20542;-61
2021/12/25 05:03:59;;;;;;;0.47;0.47;;;;;;;;;;5009468;28;20045;-62
2021/12/25 05:06:24;;;;;;;2.13;0.80;;;;;;;;;;5010608;28;20045;-62
2021/12/25 05:08:51;;;;;;;0.52;0.52;;;;;;;;;;4993353;28;20447;-59
2021/12/25 05:11:17;;;;;;;0.43;0.40;;;;;;;;;;5012250;28;20406;-61
2021/12/25 05:13:46;;;;;;;0.32;0.30;;;;;;;;;;5010276;28;20048;-59
2021/12/25 05:16:12;;;;;;;2.28;0.60;;;;;;;;;;5011090;28;20052;-60
2021/12/25 05:18:38;;;;;;;0.40;0.40;;;;;;;;;;5011596;28;20050;-60
2021/12/25 05:21:04;;;;;;;0.50;0.50;;;;;;;;;;5012234;28;20102;-60
2021/12/25 05:23:30;;;;;;;1.02;0.57;;;;;;;;;;5011229;28;20041;-59
2021/12/25 05:25:56;;;;;;;0.43;0.30;;;;;;;;;;5009726;28;20048;-60
2021/12/25 05:28:26;;;;;;;1.02;0.65;;;;;;;;;;5009266;28;20042;-60
2021/12/25 05:30:53;;;;;;;0.88;0.50;;;;;;;;;;5009882;28;20038;-60
2021/12/25 05:33:19;;;;;;;0.50;0.30;;;;;;;;;;5008539;28;20600;-60
2021/12/25 05:35:45;;;;;;;0.57;0.40;;;;;;;;;;5008669;28;20042;-60
2021/12/25 05:38:14;;;;;;;0.65;0.63;;;;;;;;;;5009493;28;20113;-60
2021/12/25 05:40:44;;;;;;;0.73;0.52;;;;;;;;;;5009293;28;20046;-61
2021/12/25 05:43:09;;;;;;;0.22;0.22;;;;;;;;;;5009324;28;20042;-60
2021/12/25 05:45:35;;;;;;;0.85;0.82;;;;;;;;;;5009534;28;20036;-60
2021/12/25 05:48:01;;;;;;;0.32;0.30;;;;;;;;;;5009450;28;20059;-61
2021/12/25 05:50:27;;;;;;;0.60;0.47;;;;;;;;;;5010644;28;20073;-60
2021/12/25 05:52:55;;;;;;;0.30;0.30;;;;;;;;;;5011698;28;20589;-61
2021/12/25 05:55:22;;;;;;;0.20;0.20;;;;;;;;;;5009196;28;20060;-61
2021/12/25 05:57:47;;;;;;;0.40;0.40;;;;;;;;;;5011201;28;20042;-61
2021/12/25 06:00:14;;;;;;;0.75;0.75;;;;;;;;;;5012624;28;20470;-61
2021/12/25 06:02:40;;;;;;;0.30;0.30;;;;;;;;;;5009931;28;20138;-61
2021/12/25 06:05:06;;;;;;;0.68;0.60;;;;;;;;;;5010912;28;20049;-61
2021/12/25 06:07:32;;;;;;;0.70;0.50;;;;;;;;;;5013273;28;20034;-59
2021/12/25 06:09:58;;;;;;;0.30;0.30;;;;;;;;;;5013400;28;20045;-58
2021/12/25 06:12:25;;;;;;;0.47;0.30;;;;;;;;;;4995108;28;20182;-60
2021/12/25 06:14:53;;;;;;;0.32;0.32;;;;;;;;;;5015635;28;20045;-59
2021/12/25 06:17:19;;;;;;;0.40;0.30;;;;;;;;;;5012248;28;20314;-60
2021/12/25 06:19:44;;;;;;;0.20;0.20;;;;;;;;;;5015852;28;20050;-61
2021/12/25 06:22:10;;;;;;;22.20;1.20;;;;;;;;;;5014372;28;20092;-61
2021/12/25 06:24:39;;;;;;;10.48;1.35;;;;;;;;;;4993211;28;20125;-62
2021/12/25 06:27:05;;;;;;;0.30;0.30;;;;;;;;;;5011450;28;20132;-61
2021/12/25 06:29:31;;;;;;;0.52;0.30;;;;;;;;;;5000126;28;20208;-60
2021/12/25 06:31:58;;;;;;;1.35;0.88;;;;;;;;;;4992335;28;20081;-59
2021/12/25 06:34:24;;;;;;;0.50;0.30;;;;;;;;;;5007642;28;20078;-60
2021/12/25 06:36:50;;;;;;;0.35;0.35;;;;;;;;;;5010179;28;20445;-60
2021/12/25 06:39:16;;;;;;;1.58;1.38;;;;;;;;;;5009662;28;20809;-61
2021/12/25 06:41:42;;;;;;;0.30;0.30;;;;;;;;;;5009902;28;20222;-60
2021/12/25 06:44:08;;;;;;;0.35;0.30;;;;;;;;;;5008582;28;20048;-60
2021/12/25 06:46:34;;;;;;;1.80;1.20;;;;;;;;;;5008103;28;20053;-61
2021/12/25 06:49:00;;;;;;;0.68;0.68;;;;;;;;;;5009811;28;20055;-61
2021/12/25 06:51:26;;;;;;;0.63;0.30;;;;;;;;;;5008068;28;20434;-61
2021/12/25 06:53:52;;;;;;;0.22;0.22;;;;;;;;;;4991510;28;20684;-61
2021/12/25 06:56:18;;;;;;;0.88;0.77;;;;;;;;;;5007744;28;20046;-61
2021/12/25 06:58:44;;;;;;;0.95;0.40;;;;;;;;;;5009095;28;20079;-61
2021/12/25 07:01:10;;;;;;;0.63;0.30;;;;;;;;;;5008425;28;20456;-61
2021/12/25 07:03:36;;;;;;;0.30;0.30;;;;;;;;;;4996642;28;20624;-61
2021/12/25 07:06:02;;;;;;;0.35;0.30;;;;;;;;;;5011704;28;20071;-61
2021/12/25 07:08:27;;;;;;;0.28;0.28;;;;;;;;;;5012358;28;20111;-60
2021/12/25 07:10:53;;;;;;;0.88;0.65;;;;;;;;;;5013686;28;20034;-60
2021/12/25 07:13:20;;;;;;;0.30;0.30;;;;;;;;;;5001478;28;20059;-60
2021/12/25 07:15:46;;;;;;;2.08;0.85;;;;;;;;;;5012016;28;20041;-61
2021/12/25 07:18:12;;;;;;;0.75;0.50;;;;;;;;;;5012612;28;20115;-61
2021/12/25 07:20:39;;;;;;;0.70;0.35;;;;;;;;;;5012539;28;20053;-61
2021/12/25 07:23:04;;;;;;;0.85;0.40;;;;;;;;;;5010135;28;20427;-61
2021/12/25 07:25:30;;;;;;;2.05;1.00;;;;;;;;;;4991752;28;20038;-60
2021/12/25 07:27:56;;;;;;;0.20;0.20;;;;;;;;;;5012364;28;20125;-61
2021/12/25 07:30:22;;;;;;;0.70;0.35;;;;;;;;;;5019009;28;20058;-60
2021/12/25 07:32:48;;;;;;;0.65;0.43;;;;;;;;;;5028428;28;20128;-59
2021/12/25 07:35:14;;;;;;;1.42;0.70;;;;;;;;;;5016531;28;20141;-60
2021/12/25 07:37:40;;;;;;;0.70;0.47;;;;;;;;;;5013965;28;20049;-59
2021/12/25 07:40:09;;;;;;;1.15;0.70;;;;;;;;;;5012962;28;20139;-61
2021/12/25 07:42:35;;;;;;;0.28;0.28;;;;;;;;;;5013683;28;20127;-62
2021/12/25 07:45:06;;;;;;;2.30;1.27;;;;;;;;;;4994661;28;20077;-60
2021/12/25 07:47:33;;;;;;;1.48;0.70;;;;;;;;;;5013537;28;20040;-60
2021/12/25 07:49:59;;;;;;;1.15;0.40;;;;;;;;;;5013558;28;20059;-61
2021/12/25 07:52:26;;;;;;;0.40;0.40;;;;;;;;;;5014823;28;20594;-60
2021/12/25 07:54:52;;;;;;;1.23;0.60;;;;;;;;;;5013322;28;20049;-60
2021/12/25 07:57:17;;;;;;;0.45;0.30;;;;;;;;;;5012432;28;20398;-61
2021/12/25 07:59:43;;;;;;;0.30;0.30;;;;;;;;;;5013016;28;20538;-61
2021/12/25 08:02:09;;;;;;;1.10;0.75;;;;;;;;;;5013938;28;20093;-61
2021/12/25 08:04:35;;;;;;;3.38;1.33;;;;;;;;;;5000715;28;20423;-62
2021/12/25 08:07:01;;;;;;;8.35;1.52;;;;;;;;;;4997175;28;20071;-61
2021/12/25 08:09:30;;;;;;;2.45;0.63;;;;;;;;;;5013819;28;20045;-61
2021/12/25 08:11:56;;;;;;;2.63;0.98;;;;;;;;;;5013888;28;20117;-61
2021/12/25 08:14:25;;;;;;;3.50;1.45;;;;;;;;;;4994851;28;20060;-60
2021/12/25 08:16:54;;;;;;;5.97;1.75;;;;;;;;;;5013326;28;20033;-59
2021/12/25 08:19:21;;;;;;;0.50;0.50;;;;;;;;;;5012786;28;20347;-60
2021/12/25 08:21:47;;;;;;;3.08;1.13;;;;;;;;;;5014605;28;20064;-61
2021/12/25 08:24:13;;;;;;;3.28;1.45;;;;;;;;;;5012078;28;20038;-61
2021/12/25 08:26:39;;;;;;;0.82;0.77;;;;;;;;;;4995351;28;20046;-61
2021/12/25 08:29:05;;;;;;;2.47;0.88;;;;;;;;;;5016049;28;20060;-59
2021/12/25 08:31:31;;;;;;;2.65;0.60;;;;;;;;;;5011874;28;20409;-60
2021/12/25 08:33:56;;;;;;;1.55;0.68;;;;;;;;;;4997841;28;20057;-59
2021/12/25 08:36:22;;;;;;;0.35;0.30;;;;;;;;;;5013000;28;20100;-61
2021/12/25 08:38:48;;;;;;;0.90;0.50;;;;;;;;;;4994128;28;20418;-60
2021/12/25 08:41:14;;;;;;;0.90;0.38;;;;;;;;;;5010865;28;20081;-61
2021/12/25 08:43:47;;;;;;;0.20;0.20;;;;;;;;;;5011205;28;20141;-61
2021/12/25 08:46:17;;;;;;;0.85;0.52;;;;;;;;;;5012405;28;20776;-61
2021/12/25 08:48:43;;;;;;;0.73;0.65;;;;;;;;;;5011580;28;20064;-60
2021/12/25 08:51:09;;;;;;;0.85;0.82;;;;;;;;;;5012422;28;20053;-61
2021/12/25 08:53:36;;;;;;;1.55;0.95;;;;;;;;;;5012633;28;20056;-60
2021/12/25 08:56:02;;;;;;;0.30;0.20;;;;;;;;;;5012100;28;20527;-60
2021/12/25 08:58:31;;;;;;;1.10;0.63;;;;;;;;;;5013003;28;20092;-60
2021/12/25 09:01:02;;;;;;;0.55;0.40;;;;;;;;;;5013996;28;20899;-61
2021/12/25 09:03:28;;;;;;;0.30;0.30;;;;;;;;;;5011626;28;20045;-61
2021/12/25 09:05:58;;;;;;;1.45;0.80;;;;;;;;;;5012149;28;20272;-60
2021/12/25 09:08:25;;;;;;;1.90;1.13;;;;;;;;;;5010943;28;20045;-60
2021/12/25 09:10:51;;;;;;;1.35;0.70;;;;;;;;;;5012309;28;20076;-61
2021/12/25 09:13:17;;;;;;;3.70;1.27;;;;;;;;;;5013312;28;20857;-59
2021/12/25 09:15:43;;;;;;;0.40;0.30;;;;;;;;;;5012459;28;20171;-62
2021/12/25 09:18:09;;;;;;;0.82;0.40;;;;;;;;;;5013730;28;20144;-62
2021/12/25 09:20:35;;;;;;;1.55;1.00;;;;;;;;;;5011500;28;20059;-60
2021/12/25 09:23:01;;;;;;;0.30;0.30;;;;;;;;;;5011538;28;20487;-62
2021/12/25 09:25:27;;;;;;;1.70;0.70;;;;;;;;;;5011332;28;20053;-61
2021/12/25 09:27:53;;;;;;;4.22;1.73;;;;;;;;;;5011122;28;20049;-61
2021/12/25 09:30:19;;;;;;;2.17;0.90;;;;;;;;;;5010235;28;20065;-61
2021/12/25 09:32:45;;;;;;;1.80;1.00;;;;;;;;;;5010636;28;20435;-61
2021/12/25 09:35:11;;;;;;;2.85;1.38;;;;;;;;;;5009947;28;20107;-60
2021/12/25 09:37:38;;;;;;;2.10;0.77;;;;;;;;;;5010650;28;20140;-60
2021/12/25 09:40:05;;;;;;;0.85;0.70;;;;;;;;;;5010253;28;20038;-61
2021/12/25 09:42:31;;;;;;;2.70;1.27;;;;;;;;;;5010273;28;20046;-61
2021/12/25 09:44:57;;;;;;;0.20;0.20;;;;;;;;;;5011095;28;20053;-61
2021/12/25 09:47:23;;;;;;;2.10;1.05;;;;;;;;;;5012838;28;20037;-61
2021/12/25 09:49:50;;;;;;;3.78;1.38;;;;;;;;;;5010145;28;20065;-61
2021/12/25 09:52:15;;;;;;;0.45;0.40;;;;;;;;;;5011191;28;20045;-62
2021/12/25 09:54:41;;;;;;;0.95;0.40;;;;;;;;;;5012210;28;20107;-62
2021/12/25 09:57:08;;;;;;;0.30;0.30;;;;;;;;;;5011714;28;20040;-62
2021/12/25 09:59:34;;;;;;;0.35;0.30;;;;;;;;;;5010140;28;21624;-62
2021/12/25 10:02:01;;;;;;;4.43;1.15;;;;;;;;;;5012576;28;20096;-62
2021/12/25 10:04:40;;;;;;;6.15;1.10;;;;;;;;;;5011062;28;20391;-62
2021/12/25 10:07:15;;;;;;;1.77;0.70;;;;;;;;;;4992421;28;20046;-61
2021/12/25 10:09:41;;;;;;;3.30;1.13;;;;;;;;;;5009810;28;20123;-61
2021/12/25 10:12:09;;;;;;;2.42;0.88;;;;;;;;;;5009594;28;20246;-61
2021/12/25 10:14:35;;;;;;;0.63;0.30;;;;;;;;;;5009883;28;20069;-61
2021/12/25 10:17:18;;;;;;;0.35;0.30;;;;;;;;;;5010161;28;21624;-60
2021/12/25 10:19:59;;;;;;;1.63;1.15;;;;;;;;;;5010365;28;20050;-60
2021/12/25 10:22:25;;;;;;;0.65;0.40;;;;;;;;;;5009052;28;20045;-60
2021/12/25 10:25:05;;;;;;;2.28;0.75;;;;;;;;;;5007834;28;20038;-60
2021/12/25 10:27:31;;;;;;;0.20;0.20;;;;;;;;;;5007569;28;20034;-60
2021/12/25 10:30:00;;;;;;;1.60;0.65;;;;;;;;;;5006755;28;20406;-60
2021/12/25 10:32:26;;;;;;;1.60;0.60;;;;;;;;;;5007396;28;21755;-59
2021/12/25 10:34:56;;;;;;;1.10;0.57;;;;;;;;;;5007011;28;20050;-59
2021/12/25 10:37:22;;;;;;;1.30;0.60;;;;;;;;;;5007449;28;20516;-60
2021/12/25 10:39:49;;;;;;;0.63;0.40;;;;;;;;;;5009562;28;20054;-60
2021/12/25 10:42:20;;;;;;;2.85;1.00;;;;;;;;;;5012030;28;20680;-60
2021/12/25 10:44:50;;;;;;;1.33;0.60;;;;;;;;;;5011813;28;20870;-60
2021/12/25 10:47:18;;;;;;;0.88;0.60;;;;;;;;;;5012880;28;20084;-60
2021/12/25 10:49:45;;;;;;;0.88;0.43;;;;;;;;;;5011680;28;20069;-60
2021/12/25 10:52:23;;;;;;;0.73;0.30;;;;;;;;;;5010940;28;20034;-60
2021/12/25 10:54:51;;;;;;;11.10;1.58;;;;;;;;;;5010743;28;20787;-59
2021/12/25 10:57:34;;;;;;;4.07;1.05;;;;;;;;;;4999151;28;20067;-60
2021/12/25 11:00:00;;;;;;;1.65;0.82;;;;;;;;;;5011565;28;20025;-60
2021/12/25 11:02:30;;;;;;;1.38;0.68;;;;;;;;;;5011167;28;20060;-60
2021/12/25 11:04:56;;;;;;;0.30;0.30;;;;;;;;;;5010421;28;20034;-60
2021/12/25 11:07:22;;;;;;;0.47;0.22;;;;;;;;;;5010586;28;20487;-59
2021/12/25 11:10:03;;;;;;;0.95;0.80;;;;;;;;;;5011738;28;20048;-60
2021/12/25 11:12:31;;;;;;;0.45;0.20;;;;;;;;;;5010399;28;20049;-60
2021/12/25 11:15:12;;;;;;;0.90;0.85;;;;;;;;;;5010228;28;20042;-59
2021/12/25 11:17:39;;;;;;;0.20;0.20;;;;;;;;;;5011577;28;20117;-59
2021/12/25 11:20:05;;;;;;;1.33;0.68;;;;;;;;;;5012611;28;20205;-60
2021/12/25 11:22:51;;;;;;;6.95;1.13;;;;;;;;;;5009812;28;20392;-60
2021/12/25 11:25:19;;;;;;;3.00;1.20;;;;;;;;;;5010207;28;20045;-60
2021/12/25 11:27:45;;;;;;;0.75;0.45;;;;;;;;;;5013738;28;20156;-60
2021/12/25 11:30:11;;;;;;;2.42;0.73;;;;;;;;;;5010875;28;20050;-59
2021/12/25 11:32:37;;;;;;;3.88;1.08;;;;;;;;;;5010920;28;20555;-59
2021/12/25 11:35:03;;;;;;;1.30;0.73;;;;;;;;;;5013840;28;20056;-60
2021/12/25 11:37:29;;;;;;;1.05;0.70;;;;;;;;;;5013768;28;20147;-60
2021/12/25 11:39:55;;;;;;;0.50;0.40;;;;;;;;;;5011510;28;20041;-60
2021/12/25 11:42:23;;;;;;;0.35;0.30;;;;;;;;;;4992774;28;20565;-61
2021/12/25 11:44:55;;;;;;;4.45;0.95;;;;;;;;;;5010062;28;20053;-59
2021/12/25 11:47:36;;;;;;;0.45;0.35;;;;;;;;;;5010912;28;20045;-61
2021/12/25 11:50:04;;;;;;;0.88;0.50;;;;;;;;;;5010128;28;20486;-61
2021/12/25 11:52:37;;;;;;;0.73;0.30;;;;;;;;;;4993099;28;20053;-60
2021/12/25 12:00:45;;;;;;;0.30;0.30;;;;;;;;;;5010003;28;20621;-60
2021/12/25 12:03:30;;;;;;;0.70;0.50;;;;;;;;;;5008845;28;20453;-60
2021/12/25 12:05:56;;;;;;;0.35;0.30;;;;;;;;;;5008932;28;20164;-59
2021/12/25 12:08:22;;;;;;;0.88;0.47;;;;;;;;;;5008851;28;20618;-60
2021/12/25 12:10:48;;;;;;;0.57;0.38;;;;;;;;;;5011269;28;20479;-60
2021/12/25 12:13:14;;;;;;;0.55;0.40;;;;;;;;;;5009672;28;20434;-60
2021/12/25 12:15:47;;;;;;;0.30;0.30;;;;;;;;;;4998947;28;20103;-60
2021/12/25 12:18:29;;;;;;;0.52;0.30;;;;;;;;;;5009762;28;20047;-61
2021/12/25 12:21:00;;;;;;;1.90;0.70;;;;;;;;;;5009542;28;20117;-60
2021/12/25 12:23:40;;;;;;;2.60;0.70;;;;;;;;;;5009253;28;20215;-59
2021/12/25 12:26:09;;;;;;;1.38;0.63;;;;;;;;;;5010435;28;20061;-60
2021/12/25 12:28:54;;;;;;;0.30;0.30;;;;;;;;;;5008456;28;20049;-61
2021/12/25 12:31:38;;;;;;;1.13;0.90;;;;;;;;;;4991381;28;20138;-61
2021/12/25 12:34:22;;;;;;;2.10;0.60;;;;;;;;;;5008905;28;20049;-60
2021/12/25 12:36:48;;;;;;;0.65;0.40;;;;;;;;;;5008488;28;20141;-59
2021/12/25 12:39:15;;;;;;;3.15;0.50;;;;;;;;;;5009118;28;20033;-60
2021/12/25 12:41:52;;;;;;;0.28;0.25;;;;;;;;;;5010092;28;20053;-61
2021/12/25 12:44:28;;;;;;;0.38;0.38;;;;;;;;;;5009258;28;20074;-61
2021/12/25 12:46:58;;;;;;;0.38;0.30;;;;;;;;;;5010389;28;20048;-61
2021/12/25 12:49:25;;;;;;;1.17;0.70;;;;;;;;;;4992809;28;20129;-61
2021/12/25 12:52:09;;;;;;;1.35;0.68;;;;;;;;;;5009952;28;20054;-61
2021/12/25 12:54:55;;;;;;;0.77;0.75;;;;;;;;;;5007474;28;20045;-58
2021/12/25 12:57:24;;;;;;;0.50;0.40;;;;;;;;;;5008435;28;20069;-59
2021/12/25 13:00:20;;;;;;;2.67;1.08;;;;;;;;;;5008509;28;20104;-59
2021/12/25 13:02:47;;;;;;;1.65;0.80;;;;;;;;;;4993077;28;20099;-60
2021/12/25 13:05:14;;;;;;;0.85;0.50;;;;;;;;;;5008176;28;20045;-59
2021/12/25 13:07:43;;;;;;;1.02;0.55;;;;;;;;;;5007377;28;20049;-59
2021/12/25 13:10:23;;;;;;;1.70;0.75;;;;;;;;;;5008244;28;20046;-59
2021/12/25 13:12:51;;;;;;;1.20;0.60;;;;;;;;;;5008660;28;20042;-60
2021/12/25 13:15:25;;;;;;;1.90;0.65;;;;;;;;;;5008810;28;20049;-59
2021/12/25 13:17:53;;;;;;;1.13;0.60;;;;;;;;;;4991170;28;20153;-59
2021/12/25 13:20:31;;;;;;;2.03;0.77;;;;;;;;;;5009977;28;20109;-60
2021/12/25 13:22:58;;;;;;;2.20;0.82;;;;;;;;;;5010644;28;20639;-60
2021/12/25 13:25:24;;;;;;;1.88;0.70;;;;;;;;;;4994079;28;20602;-60
2021/12/25 13:27:54;;;;;;;2.95;0.98;;;;;;;;;;5010647;28;20132;-60
2021/12/25 13:30:20;;;;;;;0.50;0.40;;;;;;;;;;5007764;28;20042;-61
2021/12/25 13:32:45;;;;;;;1.10;0.40;;;;;;;;;;4998625;28;20042;-61
2021/12/25 13:35:15;;;;;;;1.30;0.60;;;;;;;;;;5009085;28;20064;-60
2021/12/25 13:37:41;;;;;;;0.38;0.32;;;;;;;;;;5007809;28;20046;-59
2021/12/25 13:40:08;;;;;;;0.30;0.30;;;;;;;;;;4991938;28;20864;-60
2021/12/25 13:42:34;;;;;;;2.30;0.80;;;;;;;;;;5009148;28;20141;-59
2021/12/25 13:45:00;;;;;;;2.05;0.77;;;;;;;;;;5009869;28;20045;-60
2021/12/25 13:47:27;;;;;;;0.55;0.47;;;;;;;;;;5009337;28;20111;-61
2021/12/25 13:49:54;;;;;;;1.13;0.60;;;;;;;;;;5008988;28;20452;-60
2021/12/25 13:52:20;;;;;;;3.67;0.93;;;;;;;;;;5008632;28;20971;-60
2021/12/25 13:54:57;;;;;;;2.45;1.10;;;;;;;;;;5010577;28;20049;-60
2021/12/25 13:57:24;;;;;;;2.08;0.60;;;;;;;;;;4990507;28;20049;-60
2021/12/25 13:59:51;;;;;;;2.85;1.42;;;;;;;;;;5010271;28;20050;-61
2021/12/25 14:02:17;;;;;;;1.95;0.50;;;;;;;;;;5012749;28;20034;-60
2021/12/25 14:04:44;;;;;;;2.45;0.90;;;;;;;;;;5012794;28;20063;-59
2021/12/25 14:07:11;;;;;;;1.55;0.40;;;;;;;;;;5010812;28;20104;-61
2021/12/25 14:09:37;;;;;;;4.55;0.73;;;;;;;;;;5007276;28;20056;-59
2021/12/25 14:12:03;;;;;;;1.85;0.75;;;;;;;;;;5009584;28;20041;-60
2021/12/25 14:14:31;;;;;;;0.98;0.50;;;;;;;;;;4992519;28;20057;-60
2021/12/25 14:16:58;;;;;;;1.45;0.50;;;;;;;;;;5011472;28;20129;-60
2021/12/25 14:19:25;;;;;;;2.50;0.52;;;;;;;;;;4991310;28;20041;-60
2021/12/25 14:22:02;;;;;;;1.50;0.70;;;;;;;;;;5012065;28;20041;-61
2021/12/25 14:24:30;;;;;;;1.70;0.80;;;;;;;;;;5011579;28;20117;-60
2021/12/25 14:27:07;;;;;;;0.88;0.73;;;;;;;;;;5014934;28;20042;-61
2021/12/25 14:29:32;;;;;;;0.63;0.63;;;;;;;;;;5010917;28;20046;-60
2021/12/25 14:31:58;;;;;;;0.82;0.68;;;;;;;;;;5013283;28;20033;-61
2021/12/25 14:34:28;;;;;;;3.60;1.83;;;;;;;;;;5012442;28;20140;-62
2021/12/25 14:36:54;;;;;;;3.17;1.17;;;;;;;;;;5013593;28;20767;-60
2021/12/25 14:39:20;;;;;;;0.95;0.63;;;;;;;;;;5011882;28;20340;-60
2021/12/25 14:41:46;;;;;;;1.85;0.90;;;;;;;;;;5013100;28;20076;-60
2021/12/25 14:44:20;;;;;;;1.05;0.50;;;;;;;;;;4996053;28;20069;-61
2021/12/25 14:46:47;;;;;;;0.63;0.40;;;;;;;;;;5012714;28;20129;-61
2021/12/25 14:49:13;;;;;;;2.47;1.27;;;;;;;;;;5012766;28;20069;-60
2021/12/25 14:51:41;;;;;;;4.10;0.88;;;;;;;;;;4978752;28;20054;-60
2021/12/25 14:54:07;;;;;;;0.43;0.43;;;;;;;;;;4978168;28;20078;-61
2021/12/25 14:56:35;;;;;;;0.70;0.50;;;;;;;;;;4974900;28;20755;-60
2021/12/25 14:59:05;;;;;;;2.05;1.02;;;;;;;;;;4975728;28;20065;-61
2021/12/25 15:01:34;;;;;;;0.95;0.50;;;;;;;;;;4979415;28;20794;-61
2021/12/25 15:04:11;;;;;;;0.63;0.40;;;;;;;;;;4976525;28;20493;-60
2021/12/25 15:06:42;;;;;;;1.98;1.02;;;;;;;;;;4977211;28;20713;-61
2021/12/25 15:09:10;;;;;;;1.33;0.93;;;;;;;;;;4977890;28;20047;-60
2021/12/25 15:11:44;;;;;;;1.88;0.65;;;;;;;;;;4979643;28;20042;-61
2021/12/25 15:14:14;;;;;;;1.58;0.77;;;;;;;;;;4978759;28;20065;-61
2021/12/25 15:16:41;;;;;;;4.68;1.92;;;;;;;;;;4978491;28;20550;-62
2021/12/25 15:19:08;;;;;;;2.03;0.77;;;;;;;;;;4978009;28;20427;-61
2021/12/25 15:21:46;;;;;;;3.30;0.98;;;;;;;;;;4977281;28;20043;-61
2021/12/25 15:24:16;;;;;;;2.92;1.63;;;;;;;;;;4977513;28;20094;-59
2021/12/25 15:26:49;;;;;;;0.75;0.75;;;;;;;;;;4975039;28;20583;-61
2021/12/25 15:29:15;;;;;;;1.23;0.68;;;;;;;;;;4975013;28;20420;-60
2021/12/25 15:31:41;;;;;;;1.48;0.55;;;;;;;;;;4973911;28;20161;-60
2021/12/25 15:34:12;;;;;;;2.38;0.60;;;;;;;;;;4978083;28;20051;-59
2021/12/25 15:36:42;;;;;;;0.77;0.68;;;;;;;;;;4976666;28;20298;-59
2021/12/25 15:39:20;;;;;;;0.60;0.60;;;;;;;;;;4976286;28;20038;-60
2021/12/25 15:41:47;;;;;;;1.40;0.70;;;;;;;;;;4978978;28;20125;-61
2021/12/25 15:44:14;;;;;;;0.30;0.30;;;;;;;;;;4980340;28;20488;-60
2021/12/25 15:46:40;;;;;;;0.35;0.30;;;;;;;;;;4984039;28;20047;-61
2021/12/25 15:49:06;;;;;;;0.30;0.30;;;;;;;;;;4975805;28;20054;-59
2021/12/25 15:51:32;;;;;;;0.80;0.50;;;;;;;;;;5008068;28;20057;-60
2021/12/25 15:53:58;;;;;;;0.95;0.95;;;;;;;;;;5011349;28;20487;-58
2021/12/25 15:56:25;;;;;;;0.30;0.30;;;;;;;;;;4995525;28;20091;-58
2021/12/25 15:58:52;;;;;;;0.38;0.38;;;;;;;;;;5012678;28;20485;-59